»·PEaware :: N12559 KSNA-KAVX

N12559 :: KSNA-KAVX

FLIGHT INFORMATION

Flight Status: Arrived
Operator: Privately registered:
United States
More flights under this callsign
Pilot: Joshua S. (14624)
Aircraft: CESSNA 172 SKYHAWK
(C172)
More flights by this aircraft type
Origin: KSNA John Wayne-Orange Co
United States
Destination: KAVX Catalina
United States
More flights between these airports :: More routes between these airports
Route: +SLI V21 SXC
File this flight plan on PilotEdge
Remarks:
Altitude:
(Current/Filed)
4,000ft
Speed:
(Current/Filed)
110kts
Departed: 09-Dec-17 04:25 PM
Arrived: 09-Dec-17 05:14 PM
Distance/Time
Traveled:
32nm/0:49
Distance/Time
To Go:
Arrived

Flight Plot

Page will automatically refresh every two minutes.


Map Options




Map Legend


Flown Route
Filed Route
Departure Airport
Arrival Airport
Navaid (VOR, NDB)
Fix

Horizontal Profiles

Position Reports

Time Latitude Longitude Heading Altitude Ground
Speed
09-Dec-17 16:17 33.674026 -117.871900 143 59ft 0kts
09-Dec-17 16:18 33.674026 -117.871900 143 59ft 0kts
09-Dec-17 16:19 33.674026 -117.871900 143 59ft 0kts
09-Dec-17 16:20 33.674026 -117.871900 143 59ft 0kts
09-Dec-17 16:21 33.674026 -117.871900 143 59ft 0kts
09-Dec-17 16:22 33.674026 -117.871900 143 59ft 0kts
09-Dec-17 16:23 33.674026 -117.871900 143 59ft 0kts
09-Dec-17 16:24 33.674026 -117.871900 143 59ft 0kts
09-Dec-17 16:26 33.674026 -117.871900 143 59ft 0kts
09-Dec-17 16:27 33.674026 -117.871900 143 59ft 0kts
09-Dec-17 16:28 33.674007 -117.871880 134 59ft 3kts
09-Dec-17 16:29 33.677307 -117.869340 41 59ft 12kts
09-Dec-17 16:30 33.681268 -117.866798 75 59ft 13kts
09-Dec-17 16:31 33.673052 -117.870403 211 313ft 69kts
09-Dec-17 16:32 33.660217 -117.890589 240 1008ft 90kts
09-Dec-17 16:33 33.646999 -117.918521 240 1521ft 99kts
09-Dec-17 16:34 33.633415 -117.947228 240 2021ft 99kts
09-Dec-17 16:35 33.619884 -117.975823 240 2520ft 98kts
09-Dec-17 16:36 33.606633 -118.003820 240 3101ft 92kts
09-Dec-17 16:37 33.595165 -118.030269 247 3793ft 87kts
09-Dec-17 16:38 33.574602 -118.044973 247 4116ft 105kts
09-Dec-17 16:39 33.562999 -118.079968 240 3980ft 111kts
09-Dec-17 16:40 33.546575 -118.111667 237 3976ft 112kts
09-Dec-17 16:41 33.529658 -118.142457 236 3928ft 98kts
09-Dec-17 16:42 33.514672 -118.169478 236 3936ft 100kts
09-Dec-17 16:43 33.499125 -118.197413 236 3936ft 101kts
09-Dec-17 16:44 33.483676 -118.225099 236 3936ft 101kts
09-Dec-17 16:45 33.467954 -118.253332 236 3935ft 102kts
09-Dec-17 16:46 33.451493 -118.282880 236 3760ft 103kts
09-Dec-17 16:47 33.435470 -118.311624 236 3762ft 105kts
09-Dec-17 16:48 33.419205 -118.340778 236 3762ft 105kts
09-Dec-17 16:49 33.402967 -118.369864 236 3762ft 105kts
09-Dec-17 16:50 33.391677 -118.400550 295 3757ft 105kts
09-Dec-17 16:51 33.418089 -118.412121 348 3759ft 105kts
09-Dec-17 16:52 33.447239 -118.410442 357 3758ft 105kts
09-Dec-17 16:53 33.475902 -118.413281 325 3755ft 105kts
09-Dec-17 16:54 33.497901 -118.436519 318 3762ft 105kts
09-Dec-17 16:55 33.516690 -118.427936 103 3757ft 105kts
09-Dec-17 16:56 33.493937 -118.409162 181 3761ft 105kts
09-Dec-17 16:57 33.462932 -118.407432 182 3213ft 128kts
09-Dec-17 16:58 33.428538 -118.411122 187 2021ft 115kts
09-Dec-17 16:59 33.399158 -118.415852 188 2141ft 96kts
09-Dec-17 17:00 33.373757 -118.420123 188 2850ft 81kts
09-Dec-17 17:01 33.359673 -118.435110 219 3576ft 79kts
09-Dec-17 17:02 33.360852 -118.458010 346 3817ft 108kts
09-Dec-17 17:03 33.383060 -118.435530 46 3812ft 111kts
09-Dec-17 17:04 33.412997 -118.436603 350 3816ft 111kts
09-Dec-17 17:05 33.443668 -118.442775 350 3816ft 112kts
09-Dec-17 17:06 33.474374 -118.448950 350 3816ft 112kts
09-Dec-17 17:07 33.505167 -118.453287 2 3815ft 112kts
09-Dec-17 17:08 33.536351 -118.452313 1 3816ft 112kts
09-Dec-17 17:09 33.567720 -118.450989 4 3755ft 114kts
09-Dec-17 17:10 33.597885 -118.448367 46 3773ft 110kts
09-Dec-17 17:11 33.586255 -118.422682 158 3925ft 108kts
09-Dec-17 17:12 33.556934 -118.410802 165 3889ft 115kts
09-Dec-17 17:13 33.526693 -118.405949 161 3887ft 113kts
09-Dec-17 17:13 33.501087 -118.399638 182 3827ft 111kts
09-Dec-17 17:15 33.469457 -118.400476 182 3427ft 76kts
09-Dec-17 17:15 33.453923 -118.404996 200 2789ft 62kts
09-Dec-17 17:16 33.436766 -118.401966 177 2123ft 66kts
09-Dec-17 17:18 33.417069 -118.402221 194 2128ft 63kts
09-Dec-17 17:18 33.404678 -118.416329 237 1611ft 63kts
09-Dec-17 17:19 33.402679 -118.419015 50 1605ft 2kts
09-Dec-17 17:20 33.403404 -118.415871 109 1605ft 10kts
09-Dec-17 17:21 33.403445 -118.415640 72 1605ft 0kts
09-Dec-17 17:22 33.403445 -118.415640 72 1605ft 0kts

Navigation Log

Ident Type
1. KSNA Airport
2. SLI Navaid
3. SXC Navaid
4. KAVX Airport